sensor_id;sensor_type;location;lat;lon;timestamp;pressure;altitude;pressure_sealevel;temperature;humidity
51123;BME280;37162;41.724;13.346;2023-06-14T00:00:50;96268.44;;;20.15;78.18
51123;BME280;37162;41.724;13.346;2023-06-14T00:03:18;96265.47;;;20.17;78.13
51123;BME280;37162;41.724;13.346;2023-06-14T00:05:44;96264.66;;;20.16;78.10
51123;BME280;37162;41.724;13.346;2023-06-14T00:08:12;96264.66;;;20.16;77.93
51123;BME280;37162;41.724;13.346;2023-06-14T00:10:38;96253.06;;;20.16;78.03
51123;BME280;37162;41.724;13.346;2023-06-14T00:13:06;96245.25;;;20.14;77.93
51123;BME280;37162;41.724;13.346;2023-06-14T00:15:32;96243.34;;;20.15;78.07
51123;BME280;37162;41.724;13.346;2023-06-14T00:17:58;96237.94;;;20.15;77.98
51123;BME280;37162;41.724;13.346;2023-06-14T00:20:30;96232.56;;;20.15;77.92
51123;BME280;37162;41.724;13.346;2023-06-14T00:22:56;96226.59;;;20.13;77.62
51123;BME280;37162;41.724;13.346;2023-06-14T00:25:23;96231.75;;;20.14;77.92
51123;BME280;37162;41.724;13.346;2023-06-14T00:27:50;96217.16;;;20.05;77.92
51123;BME280;37162;41.724;13.346;2023-06-14T00:30:16;96228.25;;;20.14;77.91
51123;BME280;37162;41.724;13.346;2023-06-14T00:32:41;96227.41;;;20.13;77.98
51123;BME280;37162;41.724;13.346;2023-06-14T00:35:08;96221.22;;;20.13;77.93
51123;BME280;37162;41.724;13.346;2023-06-14T00:37:34;96223.91;;;20.13;77.93
51123;BME280;37162;41.724;13.346;2023-06-14T00:39:59;96223.91;;;20.13;77.87
51123;BME280;37162;41.724;13.346;2023-06-14T00:42:26;96219.31;;;20.13;78.10
51123;BME280;37162;41.724;13.346;2023-06-14T00:44:51;96213.13;;;20.13;77.88
51123;BME280;37162;41.724;13.346;2023-06-14T00:47:17;96213.91;;;20.13;78.01
51123;BME280;37162;41.724;13.346;2023-06-14T00:49:44;96214.19;;;20.12;78.06
51123;BME280;37162;41.724;13.346;2023-06-14T00:52:10;96218.78;;;20.11;78.00
51123;BME280;37162;41.724;13.346;2023-06-14T00:54:38;96207.19;;;20.11;77.81
51123;BME280;37162;41.724;13.346;2023-06-14T00:57:04;96209.63;;;20.12;77.94
51123;BME280;37162;41.724;13.346;2023-06-14T00:59:29;96202.59;;;20.11;78.04
51123;BME280;37162;41.724;13.346;2023-06-14T01:01:55;96200.19;;;20.10;78.08
51123;BME280;37162;41.724;13.346;2023-06-14T01:04:20;96198.28;;;20.10;77.89
51123;BME280;37162;41.724;13.346;2023-06-14T01:06:58;96188.59;;;20.09;78.09
51123;BME280;37162;41.724;13.346;2023-06-14T01:09:37;96194.00;;;20.09;77.96
51123;BME280;37162;41.724;13.346;2023-06-14T01:14:59;96177.25;;;20.02;77.90
51123;BME280;37162;41.724;13.346;2023-06-14T01:17:26;96190.44;;;20.09;78.09
51123;BME280;37162;41.724;13.346;2023-06-14T01:19:52;96173.47;;;20.03;78.13
51123;BME280;37162;41.724;13.346;2023-06-14T01:22:25;96183.19;;;20.09;78.16
51123;BME280;37162;41.724;13.346;2023-06-14T01:24:51;96178.59;;;20.10;78.17
51123;BME280;37162;41.724;13.346;2023-06-14T01:27:23;96186.41;;;20.11;78.19
51123;BME280;37162;41.724;13.346;2023-06-14T01:29:54;96185.63;;;20.11;78.22
51123;BME280;37162;41.724;13.346;2023-06-14T01:32:23;96181.31;;;20.10;78.23
51123;BME280;37162;41.724;13.346;2023-06-14T01:34:49;96184.00;;;20.10;78.16
51123;BME280;37162;41.724;13.346;2023-06-14T01:37:15;96190.44;;;20.09;78.16
51123;BME280;37162;41.724;13.346;2023-06-14T01:39:43;96194.50;;;20.11;78.25
51123;BME280;37162;41.724;13.346;2023-06-14T01:42:09;96196.69;;;20.09;77.76
51123;BME280;37162;41.724;13.346;2023-06-14T01:44:36;96203.94;;;20.09;78.11
51123;BME280;37162;41.724;13.346;2023-06-14T01:47:02;96207.47;;;20.09;78.24
51123;BME280;37162;41.724;13.346;2023-06-14T01:49:28;96212.88;;;20.09;78.18
51123;BME280;37162;41.724;13.346;2023-06-14T01:51:53;96207.47;;;20.09;77.97
51123;BME280;37162;41.724;13.346;2023-06-14T01:54:19;96208.53;;;20.08;78.09
51123;BME280;37162;41.724;13.346;2023-06-14T01:56:44;96203.94;;;20.09;78.02
51123;BME280;37162;41.724;13.346;2023-06-14T01:59:10;96203.13;;;20.08;78.05
51123;BME280;37162;41.724;13.346;2023-06-14T02:01:35;96218.25;;;20.09;78.02
51123;BME280;37162;41.724;13.346;2023-06-14T02:04:01;96208.28;;;20.10;78.29
51123;BME280;37162;41.724;13.346;2023-06-14T02:06:27;96205.56;;;20.10;78.17
51123;BME280;37162;41.724;13.346;2023-06-14T02:08:53;96205.56;;;20.10;78.11
51123;BME280;37162;41.724;13.346;2023-06-14T02:11:18;96197.50;;;20.10;78.09
51123;BME280;37162;41.724;13.346;2023-06-14T02:13:44;96200.19;;;20.10;78.23
51123;BME280;37162;41.724;13.346;2023-06-14T02:16:10;96195.31;;;20.07;78.19
51123;BME280;37162;41.724;13.346;2023-06-14T02:18:36;96187.75;;;20.04;78.20
51123;BME280;37162;41.724;13.346;2023-06-14T02:21:01;96195.84;;;20.09;78.13
51123;BME280;37162;41.724;13.346;2023-06-14T02:23:27;96193.16;;;20.09;78.04
51123;BME280;37162;41.724;13.346;2023-06-14T02:25:52;96195.03;;;20.08;77.90
51123;BME280;37162;41.724;13.346;2023-06-14T02:28:18;96199.63;;;20.08;77.97
51123;BME280;37162;41.724;13.346;2023-06-14T02:30:43;96193.16;;;20.09;77.94
51123;BME280;37162;41.724;13.346;2023-06-14T02:33:09;96194.22;;;20.08;77.89
51123;BME280;37162;41.724;13.346;2023-06-14T02:35:38;96188.84;;;20.08;78.11
51123;BME280;37162;41.724;13.346;2023-06-14T02:38:03;96183.44;;;20.08;78.08
51123;BME280;37162;41.724;13.346;2023-06-14T02:40:29;96193.44;;;20.07;77.99
51123;BME280;37162;41.724;13.346;2023-06-14T02:42:54;96192.34;;;20.08;77.86
51123;BME280;37162;41.724;13.346;2023-06-14T02:45:19;96181.28;;;20.00;77.92
51123;BME280;37162;41.724;13.346;2023-06-14T02:47:46;96196.13;;;20.07;78.10
51123;BME280;37162;41.724;13.346;2023-06-14T02:50:11;96198.81;;;20.07;78.03
51123;BME280;37162;41.724;13.346;2023-06-14T02:52:36;96191.00;;;20.06;78.11
51123;BME280;37162;41.724;13.346;2023-06-14T02:55:03;96192.34;;;20.08;78.18
51123;BME280;37162;41.724;13.346;2023-06-14T02:57:29;96200.44;;;20.08;78.23
51123;BME280;37162;41.724;13.346;2023-06-14T02:59:54;96194.22;;;20.08;78.18
51123;BME280;37162;41.724;13.346;2023-06-14T03:02:20;96180.47;;;19.99;78.35
51123;BME280;37162;41.724;13.346;2023-06-14T03:04:45;96198.81;;;20.07;78.22
51123;BME280;37162;41.724;13.346;2023-06-14T03:07:12;96200.44;;;20.08;78.01
51123;BME280;37162;41.724;13.346;2023-06-14T03:09:38;96199.09;;;20.06;78.03
51123;BME280;37162;41.724;13.346;2023-06-14T03:12:05;96200.72;;;20.07;77.93
51123;BME280;37162;41.724;13.346;2023-06-14T03:14:34;96212.31;;;20.07;78.12
51123;BME280;37162;41.724;13.346;2023-06-14T03:17:00;96209.88;;;20.06;78.01
51123;BME280;37162;41.724;13.346;2023-06-14T03:19:25;96209.06;;;20.05;78.06
51123;BME280;37162;41.724;13.346;2023-06-14T03:21:52;96215.28;;;20.06;78.04
51123;BME280;37162;41.724;13.346;2023-06-14T03:24:17;96214.47;;;20.05;78.07
51123;BME280;37162;41.724;13.346;2023-06-14T03:26:43;96216.34;;;20.05;77.99
51123;BME280;37162;41.724;13.346;2023-06-14T03:29:08;96213.66;;;20.05;77.87
51123;BME280;37162;41.724;13.346;2023-06-14T03:31:34;96211.78;;;20.05;77.86
51123;BME280;37162;41.724;13.346;2023-06-14T03:34:01;96211.78;;;20.05;77.96
51123;BME280;37162;41.724;13.346;2023-06-14T03:36:26;96219.06;;;20.05;77.94
51123;BME280;37162;41.724;13.346;2023-06-14T03:38:53;96206.38;;;20.00;78.10
51123;BME280;37162;41.724;13.346;2023-06-14T03:41:18;96216.09;;;20.06;78.10
51123;BME280;37162;41.724;13.346;2023-06-14T03:43:44;96215.28;;;20.06;78.06
51123;BME280;37162;41.724;13.346;2023-06-14T03:46:09;96215.28;;;20.06;77.91
51123;BME280;37162;41.724;13.346;2023-06-14T03:48:35;96219.88;;;20.05;78.05
51123;BME280;37162;41.724;13.346;2023-06-14T03:51:00;96224.44;;;20.05;77.82
51123;BME280;37162;41.724;13.346;2023-06-14T03:53:26;96229.84;;;20.05;77.86
51123;BME280;37162;41.724;13.346;2023-06-14T03:55:53;96229.03;;;20.04;77.94
51123;BME280;37162;41.724;13.346;2023-06-14T03:58:19;96229.84;;;20.05;78.02
51123;BME280;37162;41.724;13.346;2023-06-14T04:00:45;96229.03;;;20.04;78.07
51123;BME280;37162;41.724;13.346;2023-06-14T04:03:10;96229.84;;;20.05;77.93
51123;BME280;37162;41.724;13.346;2023-06-14T04:05:39;96232.53;;;20.05;77.94
51123;BME280;37162;41.724;13.346;2023-06-14T04:08:07;96227.16;;;20.05;78.07
51123;BME280;37162;41.724;13.346;2023-06-14T04:10:34;96217.66;;;19.97;77.96
51123;BME280;37162;41.724;13.346;2023-06-14T04:12:59;96219.84;;;20.00;78.00
51123;BME280;37162;41.724;13.346;2023-06-14T04:15:25;96223.88;;;20.03;77.78
51123;BME280;37162;41.724;13.346;2023-06-14T04:17:53;96214.97;;;19.97;77.89
51123;BME280;37162;41.724;13.346;2023-06-14T04:20:22;96231.97;;;20.03;77.76
51123;BME280;37162;41.724;13.346;2023-06-14T04:22:49;96230.09;;;20.03;77.67
51123;BME280;37162;41.724;13.346;2023-06-14T04:25:14;96231.16;;;20.02;77.65
51123;BME280;37162;41.724;13.346;2023-06-14T04:27:40;96231.97;;;20.03;77.81
51123;BME280;37162;41.724;13.346;2023-06-14T04:30:07;96230.09;;;20.03;77.80
51123;BME280;37162;41.724;13.346;2023-06-14T04:32:32;96230.09;;;20.03;77.84
51123;BME280;37162;41.724;13.346;2023-06-14T04:35:08;96224.97;;;20.02;77.79
51123;BME280;37162;41.724;13.346;2023-06-14T04:37:33;96233.06;;;20.02;77.57
51123;BME280;37162;41.724;13.346;2023-06-14T04:40:00;96233.56;;;19.99;77.83
51123;BME280;37162;41.724;13.346;2023-06-14T04:42:26;96209.28;;;19.83;77.69
51123;BME280;37162;41.724;13.346;2023-06-14T04:44:56;96238.44;;;20.02;77.70
51123;BME280;37162;41.724;13.346;2023-06-14T04:47:22;96241.16;;;20.02;77.52
51123;BME280;37162;41.724;13.346;2023-06-14T04:49:47;96241.16;;;20.02;77.49
51123;BME280;37162;41.724;13.346;2023-06-14T04:52:13;96250.03;;;20.02;77.57
51123;BME280;37162;41.724;13.346;2023-06-14T04:54:39;96231.44;;;19.96;77.51
51123;BME280;37162;41.724;13.346;2023-06-14T04:57:09;96250.03;;;20.02;77.51
51123;BME280;37162;41.724;13.346;2023-06-14T04:59:39;96238.44;;;20.02;77.34
51123;BME280;37162;41.724;13.346;2023-06-14T05:02:05;96236.03;;;20.00;77.56
51123;BME280;37162;41.724;13.346;2023-06-14T05:04:32;96228.47;;;20.02;77.41
51123;BME280;37162;41.724;13.346;2023-06-14T05:06:57;96227.66;;;20.02;77.37
51123;BME280;37162;41.724;13.346;2023-06-14T05:09:23;96225.78;;;20.02;77.31
51123;BME280;37162;41.724;13.346;2023-06-14T05:11:48;96220.38;;;20.02;77.25
51123;BME280;37162;41.724;13.346;2023-06-14T05:14:15;96206.09;;;19.97;77.19
51123;BME280;37162;41.724;13.346;2023-06-14T05:16:41;96215.00;;;20.02;77.21
51123;BME280;37162;41.724;13.346;2023-06-14T05:19:07;96209.59;;;20.02;77.02
51123;BME280;37162;41.724;13.346;2023-06-14T05:21:32;96202.31;;;20.03;77.24
51123;BME280;37162;41.724;13.346;2023-06-14T05:23:59;96212.00;;;20.04;77.27
51123;BME280;37162;41.724;13.346;2023-06-14T05:26:25;96203.94;;;20.04;77.17
51123;BME280;37162;41.724;13.346;2023-06-14T05:28:54;96207.47;;;20.04;77.17
51123;BME280;37162;41.724;13.346;2023-06-14T05:31:24;96203.69;;;20.05;77.40
51123;BME280;37162;41.724;13.346;2023-06-14T05:33:51;96204.50;;;20.06;77.28
51123;BME280;37162;41.724;13.346;2023-06-14T05:36:17;96202.59;;;20.06;77.35
51123;BME280;37162;41.724;13.346;2023-06-14T05:38:43;96200.72;;;20.07;77.35
51123;BME280;37162;41.724;13.346;2023-06-14T05:41:08;96187.22;;;20.02;77.30
51123;BME280;37162;41.724;13.346;2023-06-14T05:43:33;96205.81;;;20.08;77.29
51123;BME280;37162;41.724;13.346;2023-06-14T05:45:59;96200.19;;;20.05;77.38
51123;BME280;37162;41.724;13.346;2023-06-14T05:48:24;96207.47;;;20.09;77.19
51123;BME280;37162;41.724;13.346;2023-06-14T05:50:50;96209.31;;;20.09;77.31
51123;BME280;37162;41.724;13.346;2023-06-14T05:53:15;96214.19;;;20.07;77.22
51123;BME280;37162;41.724;13.346;2023-06-14T05:55:41;96220.41;;;20.12;77.33
51123;BME280;37162;41.724;13.346;2023-06-14T05:58:06;96208.00;;;20.06;77.12
51123;BME280;37162;41.724;13.346;2023-06-14T06:00:32;96222.00;;;20.13;77.25
51123;BME280;37162;41.724;13.346;2023-06-14T06:02:57;96223.66;;;20.14;77.03
51123;BME280;37162;41.724;13.346;2023-06-14T06:05:23;96227.16;;;20.15;76.83
51123;BME280;37162;41.724;13.346;2023-06-14T06:07:48;96235.25;;;20.15;77.14
51123;BME280;37162;41.724;13.346;2023-06-14T06:10:14;96232.56;;;20.15;76.83
51123;BME280;37162;41.724;13.346;2023-06-14T06:12:41;96240.38;;;20.16;76.95
51123;BME280;37162;41.724;13.346;2023-06-14T06:15:07;96247.66;;;20.11;76.71
51123;BME280;37162;41.724;13.346;2023-06-14T06:17:33;96250.88;;;20.18;76.91
51123;BME280;37162;41.724;13.346;2023-06-14T06:19:59;96241.47;;;20.15;76.93
51123;BME280;37162;41.724;13.346;2023-06-14T06:22:24;96242.78;;;20.18;76.84
51123;BME280;37162;41.724;13.346;2023-06-14T06:24:50;96223.09;;;20.17;76.72
51123;BME280;37162;41.724;13.346;2023-06-14T06:27:15;96236.34;;;20.19;76.81
51123;BME280;37162;41.724;13.346;2023-06-14T06:29:42;96228.78;;;20.21;76.86
51123;BME280;37162;41.724;13.346;2023-06-14T06:32:09;96221.78;;;20.15;76.92
51123;BME280;37162;41.724;13.346;2023-06-14T06:34:34;96221.78;;;20.15;76.98
51123;BME280;37162;41.724;13.346;2023-06-14T06:37:01;96225.28;;;20.15;77.25
51123;BME280;37162;41.724;13.346;2023-06-14T06:39:26;96233.66;;;20.24;77.48
51123;BME280;37162;41.724;13.346;2023-06-14T06:41:51;96240.94;;;20.24;77.54
51123;BME280;37162;41.724;13.346;2023-06-14T06:44:17;96235.28;;;20.25;77.54
51123;BME280;37162;41.724;13.346;2023-06-14T06:46:43;96232.56;;;20.25;77.55
51123;BME280;37162;41.724;13.346;2023-06-14T06:49:09;96231.78;;;20.25;77.61
51123;BME280;37162;41.724;13.346;2023-06-14T06:51:37;96227.97;;;20.26;77.36
51123;BME280;37162;41.724;13.346;2023-06-14T06:54:02;96221.78;;;20.20;77.52
51123;BME280;37162;41.724;13.346;2023-06-14T06:56:28;96238.50;;;20.27;77.32
51123;BME280;37162;41.724;13.346;2023-06-14T06:58:54;96234.75;;;20.28;77.54
51123;BME280;37162;41.724;13.346;2023-06-14T07:06:29;96243.66;;;20.29;77.55
51123;BME280;37162;41.724;13.346;2023-06-14T07:08:55;96240.69;;;20.30;77.34
51123;BME280;37162;41.724;13.346;2023-06-14T07:11:26;96235.81;;;20.27;77.19
51123;BME280;37162;41.724;13.346;2023-06-14T07:13:52;96254.69;;;20.32;77.33
51123;BME280;37162;41.724;13.346;2023-06-14T07:16:17;96245.53;;;20.33;77.59
51123;BME280;37162;41.724;13.346;2023-06-14T07:18:43;96239.88;;;20.35;77.66
51123;BME280;37162;41.724;13.346;2023-06-14T07:21:08;96247.16;;;20.34;77.65
51123;BME280;37162;41.724;13.346;2023-06-14T07:23:34;96245.00;;;20.36;77.96
51123;BME280;37162;41.724;13.346;2023-06-14T07:26:00;96244.19;;;20.36;77.78
51123;BME280;37162;41.724;13.346;2023-06-14T07:28:26;96245.28;;;20.35;77.69
51123;BME280;37162;41.724;13.346;2023-06-14T07:30:54;96237.47;;;20.33;77.51
51123;BME280;37162;41.724;13.346;2023-06-14T07:33:20;96247.44;;;20.38;77.59
51123;BME280;37162;41.724;13.346;2023-06-14T07:35:45;96247.16;;;20.39;77.62
51123;BME280;37162;41.724;13.346;2023-06-14T07:38:11;96244.47;;;20.39;77.66
51123;BME280;37162;41.724;13.346;2023-06-14T07:40:36;96242.59;;;20.40;77.49
51123;BME280;37162;41.724;13.346;2023-06-14T07:43:02;96246.09;;;20.40;77.35
51123;BME280;37162;41.724;13.346;2023-06-14T07:45:27;96248.25;;;20.43;77.50
51123;BME280;37162;41.724;13.346;2023-06-14T07:47:53;96240.44;;;20.42;77.57
51123;BME280;37162;41.724;13.346;2023-06-14T07:50:18;96253.09;;;20.41;77.26
51123;BME280;37162;41.724;13.346;2023-06-14T07:52:44;96244.47;;;20.45;77.45
51123;BME280;37162;41.724;13.346;2023-06-14T07:55:10;96253.66;;;20.43;77.46
51123;BME280;37162;41.724;13.346;2023-06-14T07:57:35;96254.47;;;20.44;77.15
51123;BME280;37162;41.724;13.346;2023-06-14T08:00:03;96256.88;;;20.46;76.99
51123;BME280;37162;41.724;13.346;2023-06-14T08:02:31;96259.59;;;20.46;77.25
51123;BME280;37162;41.724;13.346;2023-06-14T08:04:56;96260.97;;;20.48;77.06
51123;BME280;37162;41.724;13.346;2023-06-14T08:07:22;96260.97;;;20.48;77.26
51123;BME280;37162;41.724;13.346;2023-06-14T08:09:47;96254.50;;;20.49;77.18
51123;BME280;37162;41.724;13.346;2023-06-14T08:12:13;96255.03;;;20.51;77.08
51123;BME280;37162;41.724;13.346;2023-06-14T08:14:39;96250.47;;;20.52;77.16
51123;BME280;37162;41.724;13.346;2023-06-14T08:17:05;96253.97;;;20.52;76.85
51123;BME280;37162;41.724;13.346;2023-06-14T08:19:30;96251.00;;;20.54;76.97
51123;BME280;37162;41.724;13.346;2023-06-14T08:21:56;96252.31;;;20.51;76.93
51123;BME280;37162;41.724;13.346;2023-06-14T08:24:22;96260.47;;;20.56;76.91
51123;BME280;37162;41.724;13.346;2023-06-14T08:26:53;96253.16;;;20.57;77.06
51123;BME280;37162;41.724;13.346;2023-06-14T08:29:18;96248.84;;;20.61;77.11
51123;BME280;37162;41.724;13.346;2023-06-14T08:31:44;96256.97;;;20.61;77.28
51123;BME280;37162;41.724;13.346;2023-06-14T08:34:09;96250.72;;;20.60;77.28
51123;BME280;37162;41.724;13.346;2023-06-14T08:36:35;96253.16;;;20.62;77.25
51123;BME280;37162;41.724;13.346;2023-06-14T08:39:01;96242.38;;;20.62;77.14
51123;BME280;37162;41.724;13.346;2023-06-14T08:41:28;96251.28;;;20.62;76.78
51123;BME280;37162;41.724;13.346;2023-06-14T08:43:55;96246.69;;;20.63;76.97
51123;BME280;37162;41.724;13.346;2023-06-14T08:46:21;96234.81;;;20.59;76.68
51123;BME280;37162;41.724;13.346;2023-06-14T08:48:51;96245.59;;;20.64;76.44
51123;BME280;37162;41.724;13.346;2023-06-14T08:51:22;96247.22;;;20.65;76.83
51123;BME280;37162;41.724;13.346;2023-06-14T08:53:53;96248.88;;;20.66;76.48
51123;BME280;37162;41.724;13.346;2023-06-14T08:56:25;96243.19;;;20.67;76.51
51123;BME280;37162;41.724;13.346;2023-06-14T08:58:51;96249.38;;;20.68;76.43
51123;BME280;37162;41.724;13.346;2023-06-14T09:01:17;96251.00;;;20.69;76.68
51123;BME280;37162;41.724;13.346;2023-06-14T09:03:44;96260.47;;;20.72;76.46
51123;BME280;37162;41.724;13.346;2023-06-14T09:06:10;96259.66;;;20.71;76.66
51123;BME280;37162;41.724;13.346;2023-06-14T09:08:47;96268.28;;;20.73;76.37
51123;BME280;37162;41.724;13.346;2023-06-14T09:11:15;96253.69;;;20.74;76.55
51123;BME280;37162;41.724;13.346;2023-06-14T09:13:41;96251.81;;;20.75;76.46
51123;BME280;37162;41.724;13.346;2023-06-14T09:16:07;96260.47;;;20.77;76.36
51123;BME280;37162;41.724;13.346;2023-06-14T09:18:38;96254.78;;;20.78;76.56
51123;BME280;37162;41.724;13.346;2023-06-14T09:21:07;96256.41;;;20.79;76.52
51123;BME280;37162;41.724;13.346;2023-06-14T09:23:40;96258.84;;;20.81;76.53
51123;BME280;37162;41.724;13.346;2023-06-14T09:26:10;96269.66;;;20.81;76.49
51123;BME280;37162;41.724;13.346;2023-06-14T09:28:37;96273.69;;;20.83;76.41
51123;BME280;37162;41.724;13.346;2023-06-14T09:31:07;96272.63;;;20.84;76.29
51123;BME280;37162;41.724;13.346;2023-06-14T09:33:33;96269.38;;;20.87;76.49
51123;BME280;37162;41.724;13.346;2023-06-14T09:35:59;96260.19;;;20.88;76.38
51123;BME280;37162;41.724;13.346;2023-06-14T09:38:25;96252.91;;;20.89;76.16
51123;BME280;37162;41.724;13.346;2023-06-14T09:40:51;96255.06;;;20.92;76.25
51123;BME280;37162;41.724;13.346;2023-06-14T09:43:17;96246.69;;;20.93;76.16
51123;BME280;37162;41.724;13.346;2023-06-14T09:45:44;96241.28;;;20.93;76.16
51123;BME280;37162;41.724;13.346;2023-06-14T09:48:11;96246.44;;;20.95;76.15
51123;BME280;37162;41.724;13.346;2023-06-14T09:50:37;96247.22;;;20.96;76.14
51123;BME280;37162;41.724;13.346;2023-06-14T09:53:10;96260.47;;;20.97;75.96
51123;BME280;37162;41.724;13.346;2023-06-14T09:55:37;96256.66;;;20.98;75.82
51123;BME280;37162;41.724;13.346;2023-06-14T10:03:16;96248.03;;;21.01;76.15
51123;BME280;37162;41.724;13.346;2023-06-14T10:05:48;96242.34;;;21.03;75.73
51123;BME280;37162;41.724;13.346;2023-06-14T10:08:19;96244.00;;;21.04;75.92
51123;BME280;37162;41.724;13.346;2023-06-14T10:10:47;96244.81;;;21.04;75.65
51123;BME280;37162;41.724;13.346;2023-06-14T10:13:13;96238.03;;;21.02;75.79
51123;BME280;37162;41.724;13.346;2023-06-14T10:16:05;96238.03;;;21.02;75.57
51123;BME280;37162;41.724;13.346;2023-06-14T10:21:23;96251.00;;;21.10;75.71
51123;BME280;37162;41.724;13.346;2023-06-14T10:23:53;96248.81;;;21.12;75.50
51123;BME280;37162;41.724;13.346;2023-06-14T10:26:23;96241.00;;;21.10;75.63
51123;BME280;37162;41.724;13.346;2023-06-14T10:29:08;96243.16;;;21.13;75.34
51123;BME280;37162;41.724;13.346;2023-06-14T10:31:48;96244.78;;;21.14;75.26
51123;BME280;37162;41.724;13.346;2023-06-14T10:34:27;96241.28;;;21.14;74.98
51123;BME280;37162;41.724;13.346;2023-06-14T10:37:07;96232.91;;;21.10;74.81
51123;BME280;37162;41.724;13.346;2023-06-14T10:39:44;96231.81;;;21.11;74.80
51123;BME280;37162;41.724;13.346;2023-06-14T10:42:11;96231.81;;;21.16;75.30
51123;BME280;37162;41.724;13.346;2023-06-14T10:44:45;96232.09;;;21.15;75.00
51123;BME280;37162;41.724;13.346;2023-06-14T10:47:20;96222.63;;;21.12;75.10
51123;BME280;37162;41.724;13.346;2023-06-14T10:50:14;96225.88;;;21.14;74.74
51123;BME280;37162;41.724;13.346;2023-06-14T10:52:41;96228.84;;;21.13;74.92
51123;BME280;37162;41.724;13.346;2023-06-14T10:57:42;96233.44;;;21.12;74.76
51123;BME280;37162;41.724;13.346;2023-06-14T11:00:09;96227.22;;;21.12;74.81
51123;BME280;37162;41.724;13.346;2023-06-14T11:11:07;96211.03;;;21.07;74.92
51123;BME280;37162;41.724;13.346;2023-06-14T11:13:33;96205.63;;;21.07;74.65
51123;BME280;37162;41.724;13.346;2023-06-14T11:15:59;96211.03;;;21.07;74.83
51123;BME280;37162;41.724;13.346;2023-06-14T11:18:24;96207.50;;;21.06;74.96
51123;BME280;37162;41.724;13.346;2023-06-14T11:20:50;96200.50;;;21.00;74.95
51123;BME280;37162;41.724;13.346;2023-06-14T11:23:16;96206.44;;;21.02;75.06
51123;BME280;37162;41.724;13.346;2023-06-14T11:25:41;96214.81;;;21.01;75.13
51123;BME280;37162;41.724;13.346;2023-06-14T11:28:07;96207.81;;;21.00;74.85
51123;BME280;37162;41.724;13.346;2023-06-14T11:30:32;96202.41;;;20.95;74.90
51123;BME280;37162;41.724;13.346;2023-06-14T11:32:58;96199.94;;;20.98;74.89
51123;BME280;37162;41.724;13.346;2023-06-14T11:35:25;96202.13;;;20.96;75.25
51123;BME280;37162;41.724;13.346;2023-06-14T11:37:57;96208.63;;;20.95;75.24
51123;BME280;37162;41.724;13.346;2023-06-14T11:40:26;96210.50;;;20.95;75.15
51123;BME280;37162;41.724;13.346;2023-06-14T11:43:02;96198.06;;;20.93;75.46
51123;BME280;37162;41.724;13.346;2023-06-14T11:45:29;96205.38;;;20.93;75.43
51123;BME280;37162;41.724;13.346;2023-06-14T11:47:55;96204.56;;;20.92;75.53
51123;BME280;37162;41.724;13.346;2023-06-14T11:50:25;96203.75;;;20.92;75.25
51123;BME280;37162;41.724;13.346;2023-06-14T11:52:59;96202.94;;;20.91;75.40
51123;BME280;37162;41.724;13.346;2023-06-14T11:55:36;96209.44;;;20.90;75.46
51123;BME280;37162;41.724;13.346;2023-06-14T11:58:01;96204.03;;;20.90;75.43
51123;BME280;37162;41.724;13.346;2023-06-14T12:00:28;96201.34;;;20.90;75.52
51123;BME280;37162;41.724;13.346;2023-06-14T12:02:55;96192.44;;;20.90;75.81
51123;BME280;37162;41.724;13.346;2023-06-14T12:05:24;96181.88;;;20.88;75.70
51123;BME280;37162;41.724;13.346;2023-06-14T12:07:58;96186.75;;;20.86;75.43
51123;BME280;37162;41.724;13.346;2023-06-14T12:10:24;96192.16;;;20.86;75.48
51123;BME280;37162;41.724;13.346;2023-06-14T12:12:49;96190.53;;;20.85;75.60
51123;BME280;37162;41.724;13.346;2023-06-14T12:15:16;96174.06;;;20.77;75.39
51123;BME280;37162;41.724;13.346;2023-06-14T12:17:42;96188.94;;;20.84;75.77
51123;BME280;37162;41.724;13.346;2023-06-14T12:20:09;96196.75;;;20.86;75.75
51123;BME280;37162;41.724;13.346;2023-06-14T12:22:59;96167.59;;;20.67;76.15
51123;BME280;37162;41.724;13.346;2023-06-14T12:25:27;96190.53;;;20.85;76.12
51123;BME280;37162;41.724;13.346;2023-06-14T12:27:57;96187.28;;;20.83;76.15
51123;BME280;37162;41.724;13.346;2023-06-14T12:30:23;96194.31;;;20.84;75.79
51123;BME280;37162;41.724;13.346;2023-06-14T12:32:48;96195.66;;;20.87;76.35
51123;BME280;37162;41.724;13.346;2023-06-14T12:35:15;96200.53;;;20.85;76.25
51123;BME280;37162;41.724;13.346;2023-06-14T12:37:40;96205.13;;;20.84;76.28
51123;BME280;37162;41.724;13.346;2023-06-14T12:40:06;96203.47;;;20.83;75.88
51123;BME280;37162;41.724;13.346;2023-06-14T12:42:33;96207.28;;;20.82;76.05
51123;BME280;37162;41.724;13.346;2023-06-14T12:44:59;96206.47;;;20.82;75.90
51123;BME280;37162;41.724;13.346;2023-06-14T12:47:25;96207.00;;;20.74;75.79
51123;BME280;37162;41.724;13.346;2023-06-14T12:49:50;96217.00;;;20.78;75.80
51123;BME280;37162;41.724;13.346;2023-06-14T12:52:16;96216.19;;;20.78;75.76
51123;BME280;37162;41.724;13.346;2023-06-14T12:54:41;96215.38;;;20.77;76.02
51123;BME280;37162;41.724;13.346;2023-06-14T12:57:07;96224.28;;;20.78;75.73
51123;BME280;37162;41.724;13.346;2023-06-14T12:59:33;96226.19;;;20.77;76.13
51123;BME280;37162;41.724;13.346;2023-06-14T13:02:15;96230.22;;;20.75;75.92
51123;BME280;37162;41.724;13.346;2023-06-14T13:04:41;96215.38;;;20.67;75.97
51123;BME280;37162;41.724;13.346;2023-06-14T13:07:07;96235.59;;;20.75;75.80
51123;BME280;37162;41.724;13.346;2023-06-14T13:09:32;96238.06;;;20.76;75.99
51123;BME280;37162;41.724;13.346;2023-06-14T13:11:58;96237.25;;;20.76;76.05
51123;BME280;37162;41.724;13.346;2023-06-14T13:14:23;96229.41;;;20.74;76.07
51123;BME280;37162;41.724;13.346;2023-06-14T13:16:58;96209.16;;;20.77;76.16